createdAt,value
2018-01-21T00:02:37.531Z,71.99
2018-01-21T00:17:38.204Z,71.67
2018-01-21T00:32:37.075Z,71.62
2018-01-21T00:47:36.897Z,71.58
2018-01-21T01:02:37.295Z,72.50
2018-01-21T01:17:35.310Z,72.48
2018-01-21T01:32:35.186Z,73.12
2018-01-21T01:47:35.645Z,73.52
2018-01-21T02:02:34.582Z,73.73
2018-01-21T02:17:33.893Z,76.07
2018-01-21T02:32:35.333Z,77.71
2018-01-21T02:47:35.463Z,77.61
2018-01-21T03:17:35.540Z,79.91
2018-01-21T03:32:37.694Z,81.00
2018-01-21T03:47:34.659Z,79.98
2018-01-21T04:02:38.875Z,79.53
2018-01-21T04:17:37.191Z,80.02
2018-01-21T04:32:36.450Z,80.20
2018-01-21T04:47:36.401Z,79.77
2018-01-21T05:02:35.572Z,79.67
2018-01-21T05:32:36.055Z,76.41
2018-01-21T05:47:35.939Z,75.65
2018-01-21T06:02:35.369Z,77.12
2018-01-21T06:17:35.316Z,77.86
2018-01-21T06:32:35.341Z,77.54
2018-01-21T06:47:34.791Z,78.03
2018-01-21T07:02:34.601Z,78.05
2018-01-21T07:17:34.470Z,77.51
2018-01-21T07:32:34.513Z,77.35
2018-01-21T07:47:33.948Z,76.84
2018-01-21T08:02:34.835Z,75.48
2018-01-21T08:17:34.971Z,75.47
2018-01-21T08:32:34.753Z,76.15
2018-01-21T08:47:35.091Z,75.46
2018-01-21T09:02:35.448Z,74.23
2018-01-21T09:17:36.988Z,72.31
2018-01-21T09:32:34.919Z,71.30
2018-01-21T09:47:34.859Z,69.88
2018-01-21T10:02:35.262Z,70.32
2018-01-21T10:17:35.227Z,70.32
2018-01-21T10:32:35.179Z,70.23
2018-01-21T10:47:35.041Z,71.01
2018-01-21T11:02:36.510Z,71.72
2018-01-21T11:17:34.389Z,71.42
2018-01-21T11:32:33.959Z,71.45
2018-01-21T11:47:33.940Z,70.41
2018-01-21T12:02:34.677Z,70.39
2018-01-21T12:17:35.171Z,70.21
2018-01-21T12:32:34.659Z,69.94
2018-01-21T12:47:34.713Z,71.10
2018-01-21T13:02:34.955Z,71.42
2018-01-21T13:17:34.938Z,71.25
2018-01-21T13:32:34.809Z,71.42
2018-01-21T13:47:34.823Z,72.27
2018-01-21T14:02:35.253Z,73.66
2018-01-21T14:17:40.002Z,73.42
2018-01-21T14:32:36.539Z,73.29
2018-01-21T14:47:36.053Z,73.85
2018-01-21T15:02:35.055Z,74.28
2018-01-21T15:17:36.358Z,75.66
2018-01-21T15:32:45.271Z,77.14
2018-01-21T15:47:37.800Z,77.87
2018-01-21T16:02:39.421Z,77.60
2018-01-21T16:47:36.992Z,77.24
2018-01-21T17:02:46.875Z,77.83
2018-01-21T17:17:36.940Z,80.00
2018-01-21T17:32:35.767Z,80.74
2018-01-21T18:02:36.458Z,78.10
2018-01-21T18:32:37.538Z,77.99
2018-01-21T18:47:37.367Z,79.12
2018-01-21T19:17:35.434Z,79.85
2018-01-21T19:32:35.400Z,79.77
2018-01-21T19:47:39.877Z,80.21
2018-01-21T20:02:37.008Z,82.23
2018-01-21T20:17:35.350Z,83.00
2018-01-21T20:32:34.736Z,83.30
2018-01-21T20:47:49.003Z,83.15
2018-01-21T21:02:37.662Z,82.45
2018-01-21T21:32:36.648Z,80.50
2018-01-21T21:47:51.184Z,80.06
2018-01-21T22:02:42.138Z,79.69
2018-01-21T22:17:37.675Z,79.33
2018-01-21T22:32:38.141Z,78.73
2018-01-21T22:47:37.144Z,77.51
2018-01-21T23:02:37.337Z,77.26
2018-01-21T23:17:37.869Z,76.57
2018-01-21T23:32:34.385Z,76.83
2018-01-21T23:47:34.421Z,77.17
